Latest Weather Observations for Pound Creek

IDV60801

Issued at 10:31 pm EDT Sunday 1 February 2015 (issued every 30 minutes, with the page automatically refreshed every 10 minutes)

About weather observations | Map of weather stations | Latest weather observations for VIC | Other Formats
Station Details ID: 085099 Name: POUND CREEK Lat: -38.63 Lon: 145.81 Height: 3.0 m
Data from the previous 72 hours. | See also: Recent months at Pound Creek
Date/Time
EDT
Temp
°C
App
Temp
°C
Dew
Point
Rel
Hum
%
Delta-T
°C
Wind Press
QNH
hPa
Press
MSL
hPa
Rain
since 9 am
mm
Dir
 
Spd
km/h
Gust
km/h
Spd
kts
Gust
kts
01/10:30pm 16.5 16.1 13.0 80 1.9 SSW 7 11 4 6 1016.1 1016.1 0.0
01/10:00pm 17.0 16.3 13.1 78 2.2 SSW 9 13 5 7 1015.8 1015.8 0.0
01/09:30pm 17.1 16.2 13.6 80 2.0 SSW 11 17 6 9 1015.7 1015.7 0.0
01/09:00pm 16.9 14.8 13.6 81 1.9 SSW 17 22 9 12 1015.3 1015.3 0.0
01/08:30pm 17.3 15.0 14.0 81 1.9 SSW 19 26 10 14 1015.1 1015.1 0.0
01/08:00pm 17.8 15.4 14.3 80 2.0 SSW 20 28 11 15 1014.8 1014.8 0.0
01/07:30pm 18.2 15.0 14.3 78 2.2 SSW 24 30 13 16 1014.2 1014.2 0.0
01/07:00pm 19.2 16.0 14.2 73 2.9 S 24 28 13 15 1013.8 1013.8 0.0
01/06:30pm 19.9 16.8 14.5 71 3.1 SSW 24 33 13 18 1013.3 1013.3 0.0
01/06:00pm 20.5 16.8 15.1 71 3.2 SSW 28 35 15 19 1013.0 1013.0 0.0
01/05:30pm 21.4 18.8 15.0 67 3.8 SSW 22 30 12 16 1012.8 1012.8 0.0
01/05:00pm 21.8 19.5 14.7 64 4.2 SSW 20 24 11 13 1012.6 1012.6 0.0
01/04:30pm 21.6 19.1 14.0 62 4.4 S 20 28 11 15 1012.5 1012.5 0.0
01/04:00pm 22.2 19.1 12.2 53 5.6 S 20 26 11 14 1012.5 1012.5 0.0
01/03:30pm 21.1 18.8 14.0 64 4.1 SSW 19 26 10 14 1012.6 1012.6 0.0
01/03:00pm 21.9 19.7 15.0 65 4.1 SSW 20 28 11 15 1012.6 1012.6 0.0
01/02:30pm 21.9 20.3 15.0 65 4.1 SW 17 22 9 12 1012.5 1012.5 0.0
01/02:00pm 21.6 19.5 14.7 65 4.1 SSW 19 24 10 13 1012.5 1012.5 0.0
01/01:30pm 20.6 18.1 13.6 64 4.0 SSW 19 22 10 12 1012.7 1012.7 0.0
01/01:00pm 20.6 18.6 13.8 65 3.9 SW 17 22 9 12 1012.7 1012.7 0.0
01/12:30pm 19.9 18.3 13.8 68 3.5 SSW 15 20 8 11 1012.7 1012.7 0.0
01/12:00pm 20.4 19.1 13.8 66 3.8 SW 13 20 7 11 1012.7 1012.7 0.0
01/11:30am 20.5 19.0 14.2 67 3.7 SW 15 20 8 11 1012.8 1012.8 0.0
01/11:00am 19.9 18.6 13.8 68 3.5 SSW 13 17 7 9 1012.8 1012.8 0.0
01/10:30am 19.5 18.9 14.5 73 2.9 SSW 11 19 6 10 1012.6 1012.6 0.0
01/10:00am 18.9 18.6 14.4 75 2.6 SW 9 13 5 7 1012.4 1012.4 0.0
01/09:30am 18.1 18.0 13.8 76 2.4 SSW 7 9 4 5 1012.4 1012.4 0.0
01/09:00am 18.0 18.8 14.9 82 1.8 SSW 4 9 2 5 1012.2 1012.2 0.0
01/08:30am 16.9 17.4 15.1 89 1.0 N 6 7 3 4 1012.0 1012.0 0.0
01/08:00am 15.9 17.2 15.1 95 0.5 N 2 4 1 2 1011.7 1011.7 0.0
01/07:30am 15.2 15.9 14.4 95 0.5 NNW 4 6 2 3 1011.4 1011.4 0.0
01/07:00am 14.4 14.4 13.6 95 0.4 N 6 7 3 4 1011.3 1011.3 0.0
01/06:30am 14.2 13.9 13.4 95 0.4 N 7 9 4 5 1011.0 1011.0 0.0
01/06:00am 14.2 14.1 13.4 95 0.4 N 6 7 3 4 1010.7 1010.7 0.0
01/05:30am 14.4 14.2 13.6 95 0.4 NNW 7 9 4 5 1010.6 1010.6 0.0
01/05:00am 14.2 13.9 13.4 95 0.4 NNW 7 9 4 5 1010.6 1010.6 0.0
01/04:30am 13.9 13.5 13.0 94 0.5 N 7 9 4 5 1010.7 1010.7 0.0
01/04:00am 14.2 14.0 12.9 92 0.7 NW 6 9 3 5 1010.7 1010.7 0.0
01/03:30am 14.9 14.7 13.1 89 1.0 NW 6 7 3 4 1011.1 1011.1 0.0
01/03:00am 15.4 15.1 13.4 88 1.1 WNW 7 13 4 7 1011.2 1011.2 0.0
01/02:30am 15.3 14.6 13.2 87 1.2 WNW 9 15 5 8 1011.2 1011.2 0.0
01/02:00am 15.3 14.9 13.0 86 1.3 WNW 7 13 4 7 1011.3 1011.3 0.0
01/01:30am 15.5 14.3 12.8 84 1.5 WNW 11 19 6 10 1011.5 1011.5 0.0
01/01:00am 15.7 14.0 12.6 82 1.7 W 13 19 7 10 1011.7 1011.7 0.0
01/12:30am 16.2 13.4 12.7 80 1.9 WSW 19 26 10 14 1011.8 1011.8 0.0
01/12:00am 16.4 13.7 12.9 80 1.9 WSW 19 26 10 14 1012.0 1012.0 0.0
 
Date/Time
EDT
Temp
°C
App
Temp
°C
Dew
Point
Rel
Hum
%
Delta-T
°C
Wind Press
QNH
hPa
Press
MSL
hPa
Rain
since 9 am
mm
Dir
 
Spd
km/h
Gust
km/h
Spd
kts
Gust
kts
31/11:30pm 16.6 13.8 13.3 81 1.8 WSW 20 26 11 14 1012.1 1012.1 0.0
31/11:00pm 16.6 13.8 13.3 81 1.8 WSW 20 26 11 14 1012.2 1012.2 0.0
31/10:30pm 16.3 13.6 13.6 84 1.5 SW 20 26 11 14 1012.4 1012.4 0.0
31/10:00pm 16.8 13.8 13.7 82 1.8 SW 22 28 12 15 1012.3 1012.3 0.0
31/09:30pm 16.9 14.3 13.8 82 1.8 SW 20 26 11 14 1012.0 1012.0 0.0
31/09:00pm 17.0 14.0 13.7 81 1.9 WSW 22 28 12 15 1011.8 1011.8 0.0
31/08:30pm 17.2 14.8 13.7 80 2.0 WSW 19 28 10 15 1011.7 1011.7 0.0
31/08:00pm 17.3 14.7 13.2 77 2.3 WSW 19 26 10 14 1011.4 1011.4 0.0
31/07:30pm 17.7 15.1 13.2 75 2.5 WSW 19 26 10 14 1011.2 1011.2 0.0
31/07:00pm 18.5 15.4 13.4 72 2.9 WSW 22 28 12 15 1011.0 1011.0 0.0
31/06:30pm 18.3 15.2 13.4 73 2.8 WSW 22 28 12 15 1010.9 1010.9 0.0
31/06:00pm 18.8 15.1 12.8 68 3.4 WSW 24 32 13 17 1010.7 1010.7 0.0
31/05:30pm 19.5 15.9 13.0 66 3.7 WSW 24 33 13 18 1010.9 1010.9 0.0
31/05:00pm 19.7 15.3 12.9 65 3.8 WSW 28 35 15 19 1010.9 1010.9 0.0
31/04:30pm 19.8 15.1 13.3 66 3.7 WSW 30 37 16 20 1010.9 1010.9 0.0
31/04:00pm 19.7 14.9 12.9 65 3.8 WSW 30 39 16 21 1011.0 1011.0 0.0
31/03:30pm 19.7 15.0 13.2 66 3.7 WSW 30 39 16 21 1010.9 1010.9 0.0
31/03:00pm 20.6 16.7 14.3 67 3.7 SW 28 37 15 20 1010.8 1010.8 0.0
31/02:30pm 20.3 16.1 13.5 65 3.9 SW 28 35 15 19 1010.7 1010.7 0.0
31/02:00pm 20.3 16.6 14.0 67 3.6 SW 26 32 14 17 1010.7 1010.7 0.0
31/01:30pm 20.2 17.5 14.6 70 3.3 SW 22 30 12 16 1010.8 1010.8 0.0
31/01:00pm 20.4 18.1 15.6 74 2.9 SW 22 30 12 16 1010.9 1010.9 0.0
31/12:30pm 20.8 18.6 14.5 67 3.7 SW 19 24 10 13 1010.8 1010.8 0.0
31/12:00pm 21.6 20.1 14.3 63 4.3 SSW 15 20 8 11 1010.7 1010.7 0.0
31/11:30am 20.7 18.9 13.4 63 4.2 SW 15 20 8 11 1010.8 1010.8 0.0
31/11:00am 20.6 19.3 13.8 65 3.9 SW 13 20 7 11 1010.8 1010.8 0.0
31/10:30am 19.8 18.8 13.5 67 3.6 SSW 11 17 6 9 1010.8 1010.8 0.0
31/10:00am 19.9 19.3 13.6 67 3.6 SW 9 15 5 8 1010.6 1010.6 0.0
31/09:30am 19.1 18.7 14.1 73 2.9 SW 9 17 5 9 1010.8 1010.8 0.0
31/09:00am 17.9 17.0 13.8 77 2.3 W 11 15 6 8 1010.8 1010.8 0.0
31/08:30am 17.3 17.6 15.1 87 1.3 NW 7 13 4 7 1010.8 1010.8 0.0
31/08:00am 14.8 14.6 13.5 92 0.7 N 7 11 4 6 1010.9 1010.9 0.0
31/07:30am 13.6 12.7 12.7 94 0.5 NW 9 13 5 7 1010.5 1010.5 0.0
31/07:00am 12.5 11.4 11.9 96 0.3 NNW 9 13 5 7 1010.5 1010.5 0.0
31/06:30am 12.2 11.0 11.6 96 0.3 NNW 9 13 5 7 1010.4 1010.4 0.0
31/06:00am 12.0 10.7 11.4 96 0.3 NNW 9 13 5 7 1010.2 1010.2 0.0
31/05:30am 11.8 10.5 11.2 96 0.3 NNW 9 11 5 6 1010.2 1010.2 0.0
31/05:00am 11.9 10.6 11.3 96 0.3 N 9 13 5 7 1010.2 1010.2 0.0
31/04:30am 11.8 10.5 11.3 97 0.3 N 9 13 5 7 1010.2 1010.2 0.0
31/04:00am 10.3 8.5 9.5 95 0.4 NNW 9 13 5 7 1010.4 1010.4 0.0
31/03:30am 11.0 9.4 10.1 94 0.5 NNW 9 13 5 7 1010.6 1010.6 0.0
31/03:00am 10.7 9.0 9.8 94 0.5 N 9 11 5 6 1010.8 1010.8 0.0
31/02:30am 11.4 9.8 10.3 93 0.6 NNW 9 13 5 7 1011.1 1011.1 0.0
31/02:00am 11.4 9.8 10.1 92 0.7 NNW 9 11 5 6 1011.4 1011.4 0.0
31/01:30am 11.8 10.2 10.2 90 0.8 NNW 9 11 5 6 1011.7 1011.7 0.0
31/01:00am 12.1 10.9 10.2 88 1.0 N 7 11 4 6 1012.0 1012.0 0.0
31/12:30am 12.7 10.9 9.3 80 1.7 W 9 17 5 9 1012.2 1012.2 0.0
31/12:00am 15.3 13.1 12.1 81 1.7 SW 15 20 8 11 1012.4 1012.4 0.0
 
Date/Time
EDT
Temp
°C
App
Temp
°C
Dew
Point
Rel
Hum
%
Delta-T
°C
Wind Press
QNH
hPa
Press
MSL
hPa
Rain
since 9 am
mm
Dir
 
Spd
km/h
Gust
km/h
Spd
kts
Gust
kts
30/11:30pm 15.3 13.0 11.7 79 1.9 SW 15 20 8 11 1012.6 1012.6 0.0
30/11:00pm 15.3 13.4 11.9 80 1.8 SW 13 15 7 8 1012.8 1012.8 0.0
30/10:30pm 15.5 13.6 11.7 78 2.1 SW 13 20 7 11 1013.1 1013.1 0.0
30/10:00pm 14.8 13.2 11.4 80 1.8 SW 11 17 6 9 1013.2 1013.2 0.0
30/09:30pm 15.0 12.9 11.0 77 2.1 SW 13 17 7 9 1013.1 1013.1 0.0
30/09:00pm 15.2 13.4 10.8 75 2.3 SW 11 15 6 8 1013.1 1013.1 0.0
30/08:30pm 15.6 13.7 10.4 71 2.7 SSW 11 17 6 9 1013.2 1013.2 0.0
30/08:00pm 16.5 13.7 8.5 59 4.1 SSW 13 20 7 11 1013.3 1013.3 0.0
30/07:30pm 17.1 14.0 9.0 59 4.2 SSW 15 22 8 12 1013.4 1013.4 0.0
30/07:00pm 17.6 14.4 10.0 61 4.0 SSW 17 22 9 12 1013.4 1013.4 0.0
30/06:30pm 17.1 13.5 9.8 62 3.8 SSW 19 26 10 14 1013.5 1013.5 0.0
30/06:00pm 17.9 13.7 9.8 59 4.3 S 22 32 12 17 1013.6 1013.6 0.0
30/05:30pm 17.8 13.2 9.7 59 4.3 S 24 32 13 17 1013.8 1013.8 0.0
30/05:00pm 17.9 13.5 10.3 61 4.0 S 24 30 13 16 1014.1 1014.1 0.0
30/04:30pm 16.6 12.1 10.2 66 3.4 S 24 30 13 16 1014.3 1014.3 0.0
30/04:00pm 17.9 12.2 11.0 64 3.7 S 32 43 17 23 1014.4 1014.4 0.0
30/03:30pm 19.4 15.1 10.9 58 4.6 S 24 35 13 19 1014.5 1014.5 0.0
30/03:00pm 19.0 14.7 10.8 59 4.4 S 24 33 13 18 1014.8 1014.8 0.0
30/02:30pm 19.1 14.5 11.2 60 4.3 SSW 26 35 14 19 1015.0 1015.0 0.0
30/02:00pm 18.8 14.8 10.6 59 4.4 SW 22 33 12 18 1015.2 1015.2 0.0
30/01:30pm 18.2 14.7 10.1 59 4.3 SSW 19 26 10 14 1015.3 1015.3 0.0
30/01:00pm 18.3 14.9 10.4 60 4.2 SSW 19 28 10 15 1015.7 1015.7 0.0
30/12:30pm 18.0 14.4 9.9 59 4.3 SSW 19 30 10 16 1015.7 1015.7 0.0
30/12:00pm 18.0 14.4 10.4 61 4.1 S 20 28 11 15 1015.9 1015.9 0.0
30/11:30am 17.2 13.5 9.4 60 4.1 SSW 19 24 10 13 1016.2 1016.2 0.0
30/11:00am 17.6 14.7 9.8 60 4.1 S 15 20 8 11 1016.3 1016.3 0.0
30/10:30am 17.6 15.5 11.2 66 3.5 SSE 13 19 7 10 1016.5 1016.5 0.0
30/10:00am 16.2 15.0 10.3 68 3.1 S 7 11 4 6 1016.6 1016.6 0.0
30/09:30am 16.6 16.8 12.9 79 2.1 SE 4 7 2 4 1016.8 1016.8 0.0
30/09:00am 14.0 15.0 13.2 95 0.4 CALM 0 2 0 1 1016.8 1016.8 0.6
30/08:30am 13.1 13.2 12.6 97 0.3 NNW 4 6 2 3 1016.7 1016.7 0.6
30/08:00am 12.3 11.7 11.8 97 0.3 NNW 6 6 3 3 1016.5 1016.5 0.6
30/07:30am 11.6 10.8 11.1 97 0.3 NNW 6 6 3 3 1016.3 1016.3 0.6
30/07:00am 11.2 10.3 10.7 97 0.3 NNW 6 7 3 4 1016.1 1016.1 0.6
30/06:30am 11.5 10.7 10.9 96 0.3 NNW 6 7 3 4 1016.1 1016.1 0.6
30/06:00am 11.6 10.8 11.0 96 0.3 NW 6 6 3 3 1016.3 1016.3 0.6
30/05:30am 12.1 11.8 11.5 96 0.3 NW 4 6 2 3 1016.3 1016.3 0.6
30/05:00am 12.3 12.0 11.5 95 0.4 NNE 4 6 2 3 1016.4 1016.4 0.6
30/04:30am 12.4 12.1 11.6 95 0.4 NE 4 4 2 2 1016.6 1016.6 0.6
30/04:00am 12.7 12.9 11.9 95 0.4 NNW 2 4 1 2 1016.7 1016.7 0.6
30/03:30am 12.7 12.5 11.9 95 0.4 WSW 4 6 2 3 1016.9 1016.9 0.4
30/03:00am 12.5 13.0 11.7 95 0.4 CALM 0 0 0 0 1017.1 1017.1 0.4
30/02:30am 12.6 12.8 11.7 94 0.5 E 2 4 1 2 1017.2 1017.2 0.4
30/02:00am 12.7 12.1 11.8 94 0.5 E 6 9 3 5 1017.7 1017.7 0.4
30/01:30am 13.0 10.8 12.1 94 0.5 E 15 20 8 11 1018.0 1018.0 0.2
30/01:00am 13.7 13.2 12.8 94 0.5 S 7 9 4 5 1018.1 1018.1 0.0
30/12:30am 13.5 11.5 12.7 95 0.4 SSE 15 24 8 13 1018.4 1018.4 0.0
30/12:00am 10.9 11.0 10.0 94 0.5 CALM 0 0 0 0 1018.6 1018.6 0.0
 
Date/Time
EDT
Temp
°C
App
Temp
°C
Dew
Point
Rel
Hum
%
Delta-T
°C
Wind Press
QNH
hPa
Press
MSL
hPa
Rain
since 9 am
mm
Dir
 
Spd
km/h
Gust
km/h
Spd
kts
Gust
kts
29/11:30pm 10.2 10.0 9.1 93 0.5 CALM 0 0 0 0 1018.7 1018.7 0.0
29/11:00pm 10.7 10.6 9.3 91 0.7 CALM 0 0 0 0 1018.9 1018.9 0.0

Other Formats:

Comma delimited format used in spreadsheet applications
http://www.bom.gov.au/fwo/IDV60801/IDV60801.94886.axf

JavaScript Object Notation format (JSON) in row-major order
http://www.bom.gov.au/fwo/IDV60801/IDV60801.94886.json